Time;durP1;ratioP1;P1;durP2;ratioP2;P2;SDS_P1;SDS_P2;PMS_P1;PMS_P2;Temp;Humidity;BMP_temperature;BMP_pressure;BME280_temperature;BME280_humidity;BME280_pressure;Samples;Min_cycle;Max_cycle;Signal;HPM_P1;HPM_P2
2022/03/02 00:01:20;;;;;;;;;;;20.30;99.90;;;;;;5073433;28;19924;-74
2022/03/02 00:03:47;;;;;;;;;;;20.40;99.90;;;;;;5073658;28;20295;-75
2022/03/02 00:06:14;;;;;;;;;;;20.50;99.90;;;;;;5073557;28;19995;-75
2022/03/02 00:08:40;;;;;;;;;;;20.50;99.90;;;;;;5073287;28;20034;-74
2022/03/02 00:11:07;;;;;;;;;;;20.50;99.90;;;;;;5073401;28;19912;-74
2022/03/02 00:13:34;;;;;;;;;;;20.50;99.90;;;;;;5073754;28;19915;-73
2022/03/02 00:16:00;;;;;;;;;;;20.40;99.90;;;;;;5073476;28;19916;-75
2022/03/02 00:18:27;;;;;;;;;;;20.50;99.90;;;;;;5073316;28;19915;-75
2022/03/02 00:20:54;;;;;;;;;;;20.50;99.90;;;;;;5073097;28;19916;-75
2022/03/02 00:23:20;;;;;;;;;;;20.60;99.90;;;;;;5073203;28;19962;-76
2022/03/02 00:25:48;;;;;;;;;;;20.60;99.90;;;;;;5073132;28;19919;-76
2022/03/02 00:28:14;;;;;;;;;;;20.60;99.90;;;;;;5073025;28;19970;-75
2022/03/02 00:30:41;;;;;;;;;;;20.50;99.90;;;;;;5072949;28;19912;-73
2022/03/02 00:33:08;;;;;;;;;;;20.60;99.90;;;;;;5073049;28;19908;-76
2022/03/02 00:35:35;;;;;;;;;;;20.60;99.90;;;;;;5073350;28;19908;-74
2022/03/02 00:38:02;;;;;;;;;;;20.70;99.90;;;;;;5073126;28;20422;-75
2022/03/02 00:40:30;;;;;;;;;;;20.70;99.90;;;;;;5072752;28;19948;-75
2022/03/02 00:42:57;;;;;;;;;;;20.40;99.90;;;;;;5072702;28;20283;-73
2022/03/02 00:45:25;;;;;;;;;;;20.00;99.90;;;;;;5072968;28;19908;-74
2022/03/02 00:47:52;;;;;;;;;;;19.70;99.90;;;;;;5073000;28;19965;-74
2022/03/02 00:50:19;;;;;;;;;;;19.70;99.90;;;;;;5072739;28;19912;-74
2022/03/02 00:52:46;;;;;;;;;;;19.70;99.90;;;;;;5072651;28;19999;-75
2022/03/02 00:55:13;;;;;;;;;;;19.70;99.90;;;;;;5072640;28;19930;-73
2022/03/02 00:57:39;;;;;;;;;;;19.70;99.90;;;;;;5072955;28;19909;-74
2022/03/02 01:00:06;;;;;;;;;;;19.80;99.90;;;;;;5072869;28;19916;-74
2022/03/02 01:02:33;;;;;;;;;;;19.80;99.90;;;;;;5072388;28;19972;-75
2022/03/02 01:05:00;;;;;;;;;;;19.80;99.90;;;;;;5072313;28;19954;-74
2022/03/02 01:07:26;;;;;;;;;;;19.90;99.90;;;;;;5072562;28;19917;-75
2022/03/02 01:09:53;;;;;;;;;;;20.00;99.90;;;;;;5072122;28;20351;-74
2022/03/02 01:12:20;;;;;;;;;;;20.10;99.90;;;;;;5072443;28;19909;-74
2022/03/02 01:14:46;;;;;;;;;;;20.20;99.90;;;;;;5072326;28;20015;-76
2022/03/02 01:17:13;;;;;;;;;;;20.30;99.90;;;;;;5072685;28;20003;-74
2022/03/02 01:19:40;;;;;;;;;;;20.30;99.90;;;;;;5072600;28;19944;-76
2022/03/02 01:22:06;;;;;;;;;;;20.40;99.90;;;;;;5072517;28;19944;-76
2022/03/02 01:24:34;;;;;;;;;;;20.40;99.90;;;;;;5072439;28;19985;-76
2022/03/02 01:27:03;;;;;;;;;;;20.40;99.90;;;;;;5072000;28;19915;-75
2022/03/02 01:29:30;;;;;;;;;;;20.40;99.90;;;;;;5072227;28;20517;-76
2022/03/02 01:32:00;;;;;;;;;;;20.40;99.90;;;;;;5072398;28;19963;-74
2022/03/02 01:34:27;;;;;;;;;;;20.40;99.90;;;;;;5072127;28;19920;-75
2022/03/02 01:36:54;;;;;;;;;;;20.50;99.90;;;;;;5072232;28;19951;-74
2022/03/02 01:39:20;;;;;;;;;;;20.60;99.90;;;;;;5072299;28;19923;-76
2022/03/02 01:41:47;;;;;;;;;;;20.60;99.90;;;;;;5072009;28;19913;-77
2022/03/02 01:44:14;;;;;;;;;;;20.60;99.90;;;;;;5072199;28;19939;-76
2022/03/02 01:46:41;;;;;;;;;;;20.70;99.90;;;;;;5071716;28;19927;-76
2022/03/02 01:49:08;;;;;;;;;;;20.70;99.90;;;;;;5072152;28;20363;-76
2022/03/02 01:51:34;;;;;;;;;;;20.70;99.90;;;;;;5072229;28;19916;-76
2022/03/02 01:54:01;;;;;;;;;;;20.70;99.90;;;;;;5072049;28;19913;-75
2022/03/02 01:56:27;;;;;;;;;;;20.70;99.90;;;;;;5071520;28;19989;-76
2022/03/02 01:58:55;;;;;;;;;;;20.60;99.90;;;;;;5072087;28;19908;-76
2022/03/02 02:01:22;;;;;;;;;;;20.70;99.90;;;;;;5071692;28;19920;-74
2022/03/02 02:03:48;;;;;;;;;;;20.70;99.90;;;;;;5072075;28;19917;-76
2022/03/02 02:06:15;;;;;;;;;;;20.80;99.90;;;;;;5071665;28;19909;-75
2022/03/02 02:08:42;;;;;;;;;;;20.90;99.90;;;;;;5071755;28;19908;-75
2022/03/02 02:11:09;;;;;;;;;;;20.80;99.90;;;;;;5071711;28;19938;-74
2022/03/02 02:13:36;;;;;;;;;;;20.80;99.90;;;;;;5071900;28;20339;-75
2022/03/02 02:16:04;;;;;;;;;;;20.50;99.90;;;;;;5071753;28;19947;-73
2022/03/02 02:18:31;;;;;;;;;;;20.40;99.90;;;;;;5072036;28;19912;-76
2022/03/02 02:21:05;;;;;;;;;;;20.50;99.90;;;;;;5071660;28;19909;-75
2022/03/02 02:23:32;;;;;;;;;;;20.60;99.90;;;;;;5074864;28;19923;-76
2022/03/02 02:25:59;;;;;;;;;;;20.80;99.90;;;;;;5075051;28;19913;-76
2022/03/02 02:28:26;;;;;;;;;;;20.80;99.90;;;;;;5075460;28;19912;-73
2022/03/02 02:30:54;;;;;;;;;;;20.80;99.90;;;;;;5075375;28;19908;-73
2022/03/02 02:33:22;;;;;;;;;;;20.90;99.90;;;;;;5075293;28;20385;-74
2022/03/02 02:35:49;;;;;;;;;;;21.00;99.90;;;;;;5075404;28;19916;-74
2022/03/02 02:38:16;;;;;;;;;;;21.00;99.90;;;;;;5075188;28;20282;-73
2022/03/02 02:40:43;;;;;;;;;;;20.80;99.90;;;;;;5074782;28;19915;-74
2022/03/02 02:43:11;;;;;;;;;;;20.80;99.90;;;;;;5074897;28;20015;-74
2022/03/02 02:45:37;;;;;;;;;;;20.90;99.90;;;;;;5075006;28;19949;-76
2022/03/02 02:48:04;;;;;;;;;;;20.90;99.90;;;;;;5075121;28;20374;-74
2022/03/02 02:50:32;;;;;;;;;;;20.80;99.90;;;;;;5074989;28;19920;-74
2022/03/02 02:53:00;;;;;;;;;;;20.70;99.90;;;;;;5074885;28;20071;-74
2022/03/02 02:55:28;;;;;;;;;;;20.50;99.90;;;;;;5074636;28;19908;-75
2022/03/02 02:57:55;;;;;;;;;;;20.50;99.90;;;;;;5074769;28;19951;-75
2022/03/02 03:00:23;;;;;;;;;;;20.60;99.90;;;;;;5073471;28;20341;-74
2022/03/02 03:02:51;;;;;;;;;;;20.60;99.90;;;;;;5074201;28;20268;-73
2022/03/02 03:05:19;;;;;;;;;;;20.60;99.90;;;;;;5074812;28;20351;-74
2022/03/02 03:07:46;;;;;;;;;;;20.60;99.90;;;;;;5074602;28;20371;-75
2022/03/02 03:10:14;;;;;;;;;;;20.60;99.90;;;;;;5074543;28;19910;-75
2022/03/02 03:12:42;;;;;;;;;;;20.70;99.90;;;;;;5074255;28;20153;-74
2022/03/02 03:15:10;;;;;;;;;;;20.70;99.90;;;;;;5074468;28;19909;-74
2022/03/02 03:17:36;;;;;;;;;;;20.80;99.90;;;;;;5074491;28;20359;-72
2022/03/02 03:20:04;;;;;;;;;;;20.80;99.90;;;;;;5074485;28;19920;-73
2022/03/02 03:22:31;;;;;;;;;;;20.80;99.90;;;;;;5074129;28;20386;-72
2022/03/02 03:24:57;;;;;;;;;;;20.60;99.90;;;;;;5106764;28;19913;-73
2022/03/02 03:27:24;;;;;;;;;;;20.60;99.90;;;;;;5074331;28;20381;-75
2022/03/02 03:29:51;;;;;;;;;;;20.50;99.90;;;;;;5074267;28;19931;-73
2022/03/02 03:32:18;;;;;;;;;;;20.50;99.90;;;;;;5074023;28;20252;-71
2022/03/02 03:34:45;;;;;;;;;;;20.50;99.90;;;;;;5073795;28;20284;-72
2022/03/02 03:37:12;;;;;;;;;;;20.60;99.90;;;;;;5074083;28;19912;-74
2022/03/02 03:39:39;;;;;;;;;;;20.60;99.90;;;;;;5074211;28;19991;-74
2022/03/02 03:42:06;;;;;;;;;;;20.60;99.90;;;;;;5074232;28;20003;-74
2022/03/02 03:44:32;;;;;;;;;;;20.60;99.90;;;;;;5073824;28;20313;-74
2022/03/02 03:46:59;;;;;;;;;;;20.60;99.90;;;;;;5073717;28;20002;-73
2022/03/02 03:49:26;;;;;;;;;;;20.60;99.90;;;;;;5073948;28;19991;-73
2022/03/02 03:51:53;;;;;;;;;;;20.60;99.90;;;;;;5073811;28;20004;-73
2022/03/02 03:54:19;;;;;;;;;;;20.60;99.90;;;;;;5073890;28;19909;-73
2022/03/02 03:56:46;;;;;;;;;;;20.50;99.90;;;;;;5073643;28;20317;-74
2022/03/02 03:59:13;;;;;;;;;;;20.40;99.90;;;;;;5073854;28;19908;-74
2022/03/02 04:01:39;;;;;;;;;;;20.40;99.90;;;;;;5073820;28;19920;-72
2022/03/02 04:04:06;;;;;;;;;;;20.40;99.90;;;;;;5073588;28;19917;-73
2022/03/02 04:06:33;;;;;;;;;;;20.40;99.90;;;;;;5073423;28;19909;-74
2022/03/02 04:09:00;;;;;;;;;;;20.30;99.90;;;;;;5073129;28;19908;-73
2022/03/02 04:11:27;;;;;;;;;;;20.30;99.90;;;;;;5073121;28;19909;-74
2022/03/02 04:13:53;;;;;;;;;;;20.30;99.90;;;;;;5073478;28;19954;-74
2022/03/02 04:16:20;;;;;;;;;;;20.40;99.90;;;;;;5073345;28;19909;-73
2022/03/02 04:18:47;;;;;;;;;;;20.50;99.90;;;;;;5072953;28;19909;-74
2022/03/02 04:21:14;;;;;;;;;;;20.60;99.90;;;;;;5073385;28;20404;-71
2022/03/02 04:23:40;;;;;;;;;;;20.60;99.90;;;;;;5073152;28;20009;-73
2022/03/02 04:26:07;;;;;;;;;;;20.60;99.90;;;;;;5073154;28;20381;-75
2022/03/02 04:28:33;;;;;;;;;;;20.60;99.90;;;;;;5073124;28;19915;-73
2022/03/02 04:31:00;;;;;;;;;;;20.50;99.90;;;;;;5072729;28;19958;-74
2022/03/02 04:33:27;;;;;;;;;;;20.40;99.90;;;;;;5073017;28;19908;-74
2022/03/02 04:35:53;;;;;;;;;;;20.40;99.90;;;;;;5073051;28;19995;-74
2022/03/02 04:38:20;;;;;;;;;;;20.30;99.90;;;;;;5073006;28;19978;-74
2022/03/02 04:40:47;;;;;;;;;;;20.30;99.90;;;;;;5072677;28;20007;-74
2022/03/02 04:43:13;;;;;;;;;;;20.30;99.90;;;;;;5072891;28;19984;-73
2022/03/02 04:45:40;;;;;;;;;;;20.20;99.90;;;;;;5072045;28;19908;-74
2022/03/02 04:48:08;;;;;;;;;;;20.30;99.90;;;;;;5072752;28;20367;-73
2022/03/02 04:50:35;;;;;;;;;;;20.10;99.90;;;;;;5072784;28;19978;-73
2022/03/02 04:53:02;;;;;;;;;;;20.10;99.90;;;;;;5072655;28;19908;-73
2022/03/02 04:55:30;;;;;;;;;;;20.10;99.90;;;;;;5072603;28;19915;-73
2022/03/02 04:57:58;;;;;;;;;;;20.10;99.90;;;;;;5072883;28;19908;-73
2022/03/02 05:00:26;;;;;;;;;;;20.00;99.90;;;;;;5072733;28;19908;-73
2022/03/02 05:02:53;;;;;;;;;;;20.00;99.90;;;;;;5072503;28;20022;-72
2022/03/02 05:05:24;;;;;;;;;;;20.10;99.90;;;;;;5072220;28;21315;-73
2022/03/02 05:07:51;;;;;;;;;;;20.10;99.90;;;;;;5072747;28;20266;-73
2022/03/02 05:10:19;;;;;;;;;;;20.00;99.90;;;;;;5072596;28;19908;-74
2022/03/02 05:12:46;;;;;;;;;;;20.00;99.90;;;;;;5072497;28;19959;-74
2022/03/02 05:15:13;;;;;;;;;;;19.90;99.90;;;;;;5072507;28;19909;-73
2022/03/02 05:17:40;;;;;;;;;;;20.00;99.90;;;;;;5072630;28;20347;-73
2022/03/02 05:20:08;;;;;;;;;;;20.00;99.90;;;;;;5072539;28;19992;-74
2022/03/02 05:22:35;;;;;;;;;;;20.00;99.90;;;;;;5072545;28;19909;-73
2022/03/02 05:25:03;;;;;;;;;;;20.10;99.90;;;;;;5072230;28;19908;-72
2022/03/02 05:27:30;;;;;;;;;;;20.00;99.90;;;;;;5072511;28;20015;-71
2022/03/02 05:29:57;;;;;;;;;;;20.10;99.90;;;;;;5072614;28;19908;-75
2022/03/02 05:32:23;;;;;;;;;;;20.10;99.90;;;;;;5072329;28;19908;-73
2022/03/02 05:34:50;;;;;;;;;;;20.20;99.90;;;;;;5072216;28;19923;-75
2022/03/02 05:37:17;;;;;;;;;;;20.20;99.90;;;;;;5072348;28;19908;-74
2022/03/02 05:39:43;;;;;;;;;;;20.20;99.90;;;;;;5072396;28;19948;-73
2022/03/02 05:42:10;;;;;;;;;;;20.10;99.90;;;;;;5071801;28;19909;-73
2022/03/02 05:44:38;;;;;;;;;;;20.00;99.90;;;;;;5072194;28;19920;-75
2022/03/02 05:47:05;;;;;;;;;;;20.00;99.90;;;;;;5072014;28;20417;-71
2022/03/02 05:49:32;;;;;;;;;;;20.00;99.90;;;;;;5072081;28;19913;-74
2022/03/02 05:51:59;;;;;;;;;;;20.10;99.90;;;;;;5069952;28;19908;-75
2022/03/02 05:54:26;;;;;;;;;;;20.10;99.90;;;;;;5069883;28;19915;-74
2022/03/02 05:56:52;;;;;;;;;;;20.10;99.90;;;;;;5072087;28;19909;-75
2022/03/02 05:59:19;;;;;;;;;;;20.20;99.90;;;;;;5074106;28;19909;-75
2022/03/02 06:01:46;;;;;;;;;;;20.20;99.90;;;;;;5073576;28;19920;-75
2022/03/02 06:04:13;;;;;;;;;;;20.30;99.90;;;;;;5073459;28;19975;-75
2022/03/02 06:06:40;;;;;;;;;;;20.30;99.90;;;;;;5073482;28;19934;-74
2022/03/02 06:09:08;;;;;;;;;;;20.30;99.90;;;;;;5073637;28;19908;-74
2022/03/02 06:11:37;;;;;;;;;;;20.30;99.90;;;;;;5073705;28;20358;-74
2022/03/02 06:14:04;;;;;;;;;;;20.30;99.90;;;;;;5074033;28;19916;-74
2022/03/02 06:16:31;;;;;;;;;;;20.40;99.90;;;;;;5073565;28;19913;-75
2022/03/02 06:18:58;;;;;;;;;;;20.40;99.90;;;;;;5072779;28;19957;-75
2022/03/02 06:21:26;;;;;;;;;;;20.40;99.90;;;;;;5073591;28;20011;-76
2022/03/02 06:23:53;;;;;;;;;;;20.50;99.90;;;;;;5073140;28;19924;-76
2022/03/02 06:26:22;;;;;;;;;;;20.50;99.90;;;;;;5073545;28;20006;-75
2022/03/02 06:28:49;;;;;;;;;;;20.50;99.90;;;;;;5073075;28;19912;-76
2022/03/02 06:31:18;;;;;;;;;;;20.50;99.90;;;;;;5105579;28;20370;-75
2022/03/02 06:33:48;;;;;;;;;;;20.50;99.90;;;;;;5073580;28;20347;-76
2022/03/02 06:36:15;;;;;;;;;;;20.50;99.90;;;;;;5073346;28;19970;-76
2022/03/02 06:38:42;;;;;;;;;;;20.40;99.90;;;;;;5072864;28;19916;-76
2022/03/02 06:41:16;;;;;;;;;;;20.40;99.90;;;;;;5073553;28;19908;-75
2022/03/02 06:43:51;;;;;;;;;;;20.30;99.90;;;;;;5105322;28;20033;-75
2022/03/02 06:46:24;;;;;;;;;;;20.40;99.90;;;;;;5073074;28;19909;-76
2022/03/02 06:48:55;;;;;;;;;;;20.40;99.90;;;;;;5072800;28;19936;-75
2022/03/02 06:51:23;;;;;;;;;;;20.40;99.90;;;;;;5073091;28;19970;-75
2022/03/02 06:53:51;;;;;;;;;;;20.50;99.90;;;;;;5072861;28;19924;-74
2022/03/02 06:56:22;;;;;;;;;;;20.50;99.90;;;;;;5072572;28;19915;-75
2022/03/02 06:58:48;;;;;;;;;;;20.40;99.90;;;;;;5072909;28;19918;-76
2022/03/02 07:01:21;;;;;;;;;;;20.40;99.90;;;;;;5072510;28;20283;-76
2022/03/02 07:03:50;;;;;;;;;;;20.40;99.90;;;;;;5072982;28;19916;-75
2022/03/02 07:06:18;;;;;;;;;;;20.40;99.90;;;;;;5073146;28;19943;-75
2022/03/02 07:08:45;;;;;;;;;;;20.30;99.90;;;;;;5071873;28;19909;-73
2022/03/02 07:11:12;;;;;;;;;;;20.30;99.90;;;;;;5072376;28;19959;-75
2022/03/02 07:13:39;;;;;;;;;;;20.40;99.90;;;;;;5072762;28;20359;-74
2022/03/02 07:16:06;;;;;;;;;;;20.40;99.90;;;;;;5072718;28;19908;-75
2022/03/02 07:18:34;;;;;;;;;;;20.40;99.90;;;;;;5072551;28;19909;-74
2022/03/02 07:21:02;;;;;;;;;;;20.40;99.90;;;;;;5072301;28;19908;-75
2022/03/02 07:23:34;;;;;;;;;;;20.40;99.90;;;;;;5072096;28;20515;-73
2022/03/02 07:26:01;;;;;;;;;;;20.40;99.90;;;;;;5072230;28;19991;-75
2022/03/02 07:28:28;;;;;;;;;;;20.40;99.90;;;;;;5072525;28;19909;-75
2022/03/02 07:30:57;;;;;;;;;;;20.40;99.90;;;;;;5071473;28;20285;-75
2022/03/02 07:33:25;;;;;;;;;;;20.20;99.90;;;;;;5072478;28;20022;-75
2022/03/02 07:35:58;;;;;;;;;;;20.20;99.90;;;;;;5072663;28;20293;-75
2022/03/02 07:38:25;;;;;;;;;;;20.30;99.90;;;;;;5072196;28;19909;-75
2022/03/02 07:40:53;;;;;;;;;;;20.30;99.90;;;;;;5072807;28;19923;-75
2022/03/02 07:43:20;;;;;;;;;;;20.20;99.90;;;;;;5074967;28;19921;-76
2022/03/02 07:45:47;;;;;;;;;;;20.10;99.90;;;;;;5071813;28;19912;-77
2022/03/02 07:48:14;;;;;;;;;;;19.90;99.90;;;;;;5073441;28;19913;-77
2022/03/02 07:50:40;;;;;;;;;;;19.80;99.90;;;;;;5074017;28;19944;-75
2022/03/02 07:53:07;;;;;;;;;;;19.70;99.90;;;;;;5077668;28;19915;-75
2022/03/02 07:55:35;;;;;;;;;;;19.70;99.90;;;;;;5078210;28;19908;-76
2022/03/02 07:58:03;;;;;;;;;;;19.70;99.90;;;;;;5073269;28;20390;-76
2022/03/02 08:00:30;;;;;;;;;;;19.70;99.90;;;;;;5072008;28;19970;-76
2022/03/02 08:02:58;;;;;;;;;;;19.70;99.90;;;;;;5051892;28;20375;-77
2022/03/02 08:05:24;;;;;;;;;;;19.80;99.90;;;;;;5052907;28;19916;-76
2022/03/02 08:07:52;;;;;;;;;;;19.90;99.90;;;;;;5054357;28;20006;-76
2022/03/02 08:10:19;;;;;;;;;;;19.90;99.90;;;;;;5054358;28;20432;-76
2022/03/02 08:12:46;;;;;;;;;;;20.00;99.90;;;;;;5054512;28;19917;-76
2022/03/02 08:15:13;;;;;;;;;;;19.90;99.90;;;;;;5056015;28;19931;-75
2022/03/02 08:17:39;;;;;;;;;;;19.90;99.90;;;;;;5054974;28;19991;-73
2022/03/02 08:20:06;;;;;;;;;;;19.90;99.90;;;;;;5053687;28;19909;-74
2022/03/02 08:22:35;;;;;;;;;;;19.90;99.90;;;;;;5053813;28;19952;-76
2022/03/02 08:25:10;;;;;;;;;;;19.90;99.90;;;;;;5057052;28;19908;-76
2022/03/02 08:27:44;;;;;;;;;;;19.90;99.90;;;;;;5053780;28;19908;-74
2022/03/02 08:30:12;;;;;;;;;;;19.80;99.90;;;;;;5052837;28;19916;-74
2022/03/02 08:32:43;;;;;;;;;;;19.70;99.90;;;;;;5052773;28;19950;-77
2022/03/02 08:35:10;;;;;;;;;;;19.70;99.90;;;;;;5053541;28;19909;-76
2022/03/02 08:37:37;;;;;;;;;;;19.70;99.90;;;;;;5052997;28;19960;-77
2022/03/02 08:40:05;;;;;;;;;;;19.70;99.90;;;;;;5053698;28;20410;-76
2022/03/02 08:42:32;;;;;;;;;;;19.70;99.90;;;;;;5053404;28;20379;-77
2022/03/02 08:44:59;;;;;;;;;;;19.80;99.90;;;;;;5051986;28;19909;-76
2022/03/02 08:47:26;;;;;;;;;;;19.80;99.90;;;;;;5053316;28;20310;-75
2022/03/02 08:49:54;;;;;;;;;;;19.80;99.90;;;;;;5053213;28;19962;-76
2022/03/02 08:52:31;;;;;;;;;;;19.70;99.90;;;;;;5085727;28;20394;-76
2022/03/02 08:55:00;;;;;;;;;;;19.70;99.90;;;;;;5052858;28;19913;-74
2022/03/02 08:57:27;;;;;;;;;;;19.70;99.90;;;;;;5052949;28;19909;-76
2022/03/02 08:59:54;;;;;;;;;;;19.60;99.90;;;;;;5053383;28;19999;-77
2022/03/02 09:02:24;;;;;;;;;;;19.50;99.90;;;;;;5068876;28;19967;-75
2022/03/02 09:04:51;;;;;;;;;;;19.50;99.90;;;;;;5072668;28;19992;-75
2022/03/02 09:07:19;;;;;;;;;;;19.60;99.90;;;;;;5072774;28;19912;-74
2022/03/02 09:09:46;;;;;;;;;;;19.60;99.90;;;;;;5073084;28;19999;-77
2022/03/02 09:12:14;;;;;;;;;;;19.70;99.90;;;;;;5072985;28;19915;-77
2022/03/02 09:14:40;;;;;;;;;;;19.70;99.90;;;;;;5072986;28;19916;-76
2022/03/02 09:17:08;;;;;;;;;;;19.80;99.90;;;;;;5077989;28;19909;-75
2022/03/02 09:19:35;;;;;;;;;;;19.80;99.90;;;;;;5087599;28;19908;-74
2022/03/02 09:22:03;;;;;;;;;;;19.80;99.90;;;;;;5072897;28;19962;-71
2022/03/02 09:24:30;;;;;;;;;;;19.90;99.90;;;;;;5072864;28;19921;-75
2022/03/02 09:27:02;;;;;;;;;;;19.90;99.90;;;;;;5072622;28;19908;-76
2022/03/02 09:29:30;;;;;;;;;;;19.90;99.90;;;;;;5072595;28;19909;-76
2022/03/02 09:31:57;;;;;;;;;;;20.00;99.90;;;;;;5075163;28;19915;-75
2022/03/02 09:34:29;;;;;;;;;;;19.90;99.90;;;;;;5076745;28;19930;-75
2022/03/02 09:36:56;;;;;;;;;;;19.90;99.90;;;;;;5076531;28;19909;-75
2022/03/02 09:39:24;;;;;;;;;;;19.90;99.90;;;;;;5076835;28;19916;-75
2022/03/02 09:42:05;;;;;;;;;;;19.90;99.90;;;;;;5076609;28;19991;-75
2022/03/02 09:44:36;;;;;;;;;;;19.90;99.90;;;;;;5076642;28;19921;-75
2022/03/02 09:47:07;;;;;;;;;;;19.90;99.90;;;;;;5076556;28;19909;-75
2022/03/02 09:49:35;;;;;;;;;;;19.90;99.90;;;;;;5076633;28;20375;-75
2022/03/02 09:52:06;;;;;;;;;;;19.90;99.90;;;;;;5076342;28;20003;-75
2022/03/02 09:54:37;;;;;;;;;;;20.00;99.90;;;;;;5076324;28;19909;-77
2022/03/02 09:57:06;;;;;;;;;;;20.00;99.90;;;;;;5076499;28;19952;-75
2022/03/02 09:59:35;;;;;;;;;;;20.00;99.90;;;;;;5076438;28;19908;-74
2022/03/02 10:02:02;;;;;;;;;;;20.10;99.90;;;;;;5076047;28;19978;-74
2022/03/02 10:04:30;;;;;;;;;;;20.10;99.90;;;;;;5076137;28;20367;-76
2022/03/02 10:07:45;;;;;;;;;;;20.10;99.90;;;;;;5075642;28;20259;-77
2022/03/02 10:09:48;;;;;;;;;;;20.00;99.90;;;;;;5065249;28;19916;-73
2022/03/02 10:12:15;;;;;;;;;;;20.00;99.90;;;;;;5075845;28;19908;-73
2022/03/02 10:14:42;;;;;;;;;;;20.00;99.90;;;;;;5075880;28;19919;-74
2022/03/02 10:17:12;;;;;;;;;;;20.10;99.90;;;;;;5076119;28;19999;-74
2022/03/02 10:19:45;;;;;;;;;;;20.10;99.90;;;;;;5075225;28;19913;-75
2022/03/02 10:22:24;;;;;;;;;;;20.10;99.90;;;;;;5075933;28;20343;-75
2022/03/02 10:24:53;;;;;;;;;;;20.00;99.90;;;;;;5075375;28;19955;-75
2022/03/02 10:27:33;;;;;;;;;;;19.80;99.90;;;;;;5075762;28;19909;-75
2022/03/02 10:30:11;;;;;;;;;;;19.80;99.90;;;;;;5075467;28;19919;-75
2022/03/02 10:32:42;;;;;;;;;;;19.80;99.90;;;;;;5075207;28;20012;-74
2022/03/02 10:35:09;;;;;;;;;;;19.80;99.90;;;;;;5086798;28;19908;-75
2022/03/02 10:37:41;;;;;;;;;;;19.80;99.90;;;;;;5095255;28;19965;-76
2022/03/02 10:40:13;;;;;;;;;;;19.80;99.90;;;;;;5094304;28;19937;-75
2022/03/02 10:42:41;;;;;;;;;;;19.80;99.90;;;;;;5094160;28;19908;-77
2022/03/02 10:45:18;;;;;;;;;;;19.80;99.90;;;;;;5096021;28;19978;-77
2022/03/02 10:47:49;;;;;;;;;;;19.90;99.90;;;;;;5111123;28;19908;-78
2022/03/02 10:50:16;;;;;;;;;;;19.80;99.90;;;;;;5095346;28;20399;-77
2022/03/02 10:52:44;;;;;;;;;;;19.80;99.90;;;;;;5095265;28;19908;-77
2022/03/02 10:55:13;;;;;;;;;;;19.80;99.90;;;;;;5095913;28;19912;-76
2022/03/02 10:57:40;;;;;;;;;;;19.70;99.90;;;;;;5095549;28;19908;-76
2022/03/02 11:00:14;;;;;;;;;;;19.70;99.90;;;;;;5095515;28;20410;-76
2022/03/02 11:02:42;;;;;;;;;;;19.70;99.90;;;;;;5094573;28;19998;-77
2022/03/02 11:05:11;;;;;;;;;;;19.80;99.90;;;;;;5095320;28;19912;-76
2022/03/02 11:07:37;;;;;;;;;;;19.80;99.90;;;;;;5094936;28;19923;-77
2022/03/02 11:10:05;;;;;;;;;;;19.80;99.90;;;;;;5095237;28;19908;-76
2022/03/02 11:12:32;;;;;;;;;;;19.90;99.90;;;;;;5095099;28;20316;-77
2022/03/02 11:15:03;;;;;;;;;;;20.00;99.90;;;;;;5094775;28;19912;-75
2022/03/02 11:17:30;;;;;;;;;;;20.00;99.90;;;;;;5094451;28;19908;-72
2022/03/02 11:19:58;;;;;;;;;;;20.10;99.90;;;;;;5095114;28;19912;-76
2022/03/02 11:22:26;;;;;;;;;;;20.10;99.90;;;;;;5094945;28;20007;-76
2022/03/02 11:24:57;;;;;;;;;;;20.10;99.90;;;;;;5094418;28;20278;-77
2022/03/02 11:27:28;;;;;;;;;;;20.10;99.90;;;;;;5094899;28;19908;-75
2022/03/02 11:30:06;;;;;;;;;;;20.10;99.90;;;;;;5094558;28;19908;-76
2022/03/02 11:32:33;;;;;;;;;;;20.10;99.90;;;;;;5093984;28;19908;-76
2022/03/02 11:35:03;;;;;;;;;;;20.10;99.90;;;;;;5094574;28;19908;-75
2022/03/02 11:37:33;;;;;;;;;;;20.10;99.90;;;;;;5094685;28;20324;-75
2022/03/02 11:40:01;;;;;;;;;;;20.10;99.90;;;;;;5094706;28;19943;-76
2022/03/02 11:42:29;;;;;;;;;;;20.10;99.90;;;;;;5094491;28;20003;-73
2022/03/02 11:44:56;;;;;;;;;;;20.10;99.90;;;;;;5094074;28;20007;-75
2022/03/02 11:47:24;;;;;;;;;;;20.00;99.90;;;;;;5093951;28;19908;-76
2022/03/02 11:49:52;;;;;;;;;;;20.00;99.90;;;;;;5094416;28;20436;-76
2022/03/02 11:52:20;;;;;;;;;;;20.00;99.90;;;;;;5094238;28;19908;-77
2022/03/02 11:54:47;;;;;;;;;;;20.00;99.90;;;;;;5092487;28;20285;-77
2022/03/02 11:57:16;;;;;;;;;;;20.10;99.90;;;;;;5094246;28;19916;-78
2022/03/02 11:59:43;;;;;;;;;;;20.00;99.90;;;;;;5094349;28;19962;-77
2022/03/02 12:02:14;;;;;;;;;;;20.00;99.90;;;;;;5093815;28;19920;-77
2022/03/02 12:04:41;;;;;;;;;;;20.00;99.90;;;;;;5093774;28;20375;-78
2022/03/02 12:07:08;;;;;;;;;;;20.00;99.90;;;;;;5094229;28;20328;-76
2022/03/02 12:09:38;;;;;;;;;;;20.00;99.90;;;;;;5094088;28;20014;-78
2022/03/02 12:12:10;;;;;;;;;;;20.00;99.90;;;;;;5094462;28;19908;-78
2022/03/02 12:14:50;;;;;;;;;;;20.00;99.90;;;;;;5099127;28;19931;-79
2022/03/02 12:17:21;;;;;;;;;;;20.10;99.90;;;;;;5096232;28;19998;-75
2022/03/02 12:19:52;;;;;;;;;;;20.10;99.90;;;;;;5093918;28;19908;-78
2022/03/02 12:22:19;;;;;;;;;;;20.10;99.90;;;;;;5092260;28;20057;-78
2022/03/02 12:24:46;;;;;;;;;;;20.20;99.90;;;;;;5093110;28;19916;-78
2022/03/02 12:27:13;;;;;;;;;;;20.10;99.90;;;;;;5093596;28;20271;-78
2022/03/02 12:29:41;;;;;;;;;;;20.10;99.90;;;;;;5093809;28;19922;-78
2022/03/02 12:32:09;;;;;;;;;;;20.10;99.90;;;;;;5093936;28;19916;-75
2022/03/02 12:34:40;;;;;;;;;;;20.10;99.90;;;;;;5093497;28;19915;-78
2022/03/02 12:37:07;;;;;;;;;;;20.10;99.90;;;;;;5093629;28;19959;-74
2022/03/02 12:39:35;;;;;;;;;;;20.10;99.90;;;;;;5093526;28;20281;-77
2022/03/02 12:42:07;;;;;;;;;;;20.10;99.90;;;;;;5093403;28;19912;-75
2022/03/02 12:44:38;;;;;;;;;;;20.10;99.90;;;;;;5093236;28;19979;-76
2022/03/02 12:47:07;;;;;;;;;;;20.10;99.90;;;;;;5093198;28;20325;-77
2022/03/02 12:49:35;;;;;;;;;;;20.10;99.90;;;;;;5093270;28;19912;-76
2022/03/02 12:52:03;;;;;;;;;;;20.00;99.90;;;;;;5093320;28;19919;-77
2022/03/02 12:54:31;;;;;;;;;;;20.00;99.90;;;;;;5093454;28;19908;-75
2022/03/02 12:56:59;;;;;;;;;;;20.00;99.90;;;;;;5093099;28;19923;-78
2022/03/02 12:59:27;;;;;;;;;;;20.10;99.90;;;;;;5093231;28;19908;-73
2022/03/02 13:01:53;;;;;;;;;;;20.10;99.90;;;;;;5093056;28;19921;-77
2022/03/02 13:04:24;;;;;;;;;;;20.10;99.90;;;;;;5093228;28;19924;-77
2022/03/02 13:06:55;;;;;;;;;;;20.00;99.90;;;;;;5092283;28;19912;-77
2022/03/02 13:09:22;;;;;;;;;;;19.90;99.90;;;;;;5093051;28;19912;-77
2022/03/02 13:11:49;;;;;;;;;;;19.90;99.90;;;;;;5093067;28;19915;-76
2022/03/02 13:14:31;;;;;;;;;;;19.90;99.90;;;;;;5093019;28;19942;-76
2022/03/02 13:17:17;;;;;;;;;;;20.00;99.90;;;;;;5092731;28;20317;-77
2022/03/02 13:19:47;;;;;;;;;;;20.00;99.90;;;;;;5092979;28;20372;-77
2022/03/02 13:22:22;;;;;;;;;;;20.10;99.90;;;;;;5092874;28;19915;-76
2022/03/02 13:24:51;;;;;;;;;;;20.10;99.90;;;;;;5092759;28;19984;-77
2022/03/02 13:27:17;;;;;;;;;;;20.10;99.90;;;;;;5093158;28;19912;-77
2022/03/02 13:29:53;;;;;;;;;;;20.20;99.90;;;;;;5093044;28;19908;-77
2022/03/02 13:32:20;;;;;;;;;;;20.20;99.90;;;;;;5093203;28;19908;-76
2022/03/02 13:35:05;;;;;;;;;;;20.20;99.90;;;;;;5092788;28;19915;-77
2022/03/02 13:37:50;;;;;;;;;;;20.20;99.90;;;;;;5092821;28;20405;-76
2022/03/02 13:40:34;;;;;;;;;;;20.20;99.90;;;;;;5093121;28;19915;-77
2022/03/02 13:43:07;;;;;;;;;;;20.10;99.90;;;;;;5092730;28;19920;-77
2022/03/02 13:45:34;;;;;;;;;;;20.10;99.90;;;;;;5101103;28;19912;-78
2022/03/02 13:48:17;;;;;;;;;;;20.00;99.90;;;;;;5095369;28;19915;-77
2022/03/02 13:50:57;;;;;;;;;;;20.00;99.90;;;;;;5092475;28;19908;-77
2022/03/02 13:53:33;;;;;;;;;;;19.90;99.90;;;;;;5092939;28;20354;-77
2022/03/02 13:56:04;;;;;;;;;;;19.90;99.90;;;;;;5092472;28;19951;-77
2022/03/02 13:58:31;;;;;;;;;;;20.00;99.90;;;;;;5092589;28;19908;-77
2022/03/02 14:01:17;;;;;;;;;;;20.00;99.90;;;;;;5092386;28;20429;-76
2022/03/02 14:03:46;;;;;;;;;;;20.00;99.90;;;;;;5092636;28;19961;-76
2022/03/02 14:06:17;;;;;;;;;;;20.00;99.90;;;;;;5092468;28;20360;-75
2022/03/02 14:08:44;;;;;;;;;;;20.00;99.90;;;;;;5092351;28;19931;-77
2022/03/02 14:11:26;;;;;;;;;;;20.00;99.90;;;;;;5092511;28;19915;-78
2022/03/02 14:13:53;;;;;;;;;;;20.00;99.90;;;;;;5092415;28;20259;-77
2022/03/02 14:16:20;;;;;;;;;;;20.00;99.90;;;;;;5092552;28;19908;-76
2022/03/02 14:18:47;;;;;;;;;;;20.10;99.90;;;;;;5095915;28;19973;-78
2022/03/02 14:21:15;;;;;;;;;;;20.10;99.90;;;;;;5096205;28;19915;-78
2022/03/02 14:23:46;;;;;;;;;;;20.10;99.90;;;;;;5096153;28;19924;-77